Time;durP1;ratioP1;P1;durP2;ratioP2;P2;SDS_P1;SDS_P2;PMS_P1;PMS_P2;Temp;Humidity;BMP_temperature;BMP_pressure;BME280_temperature;BME280_humidity;BME280_pressure;Samples;Min_cycle;Max_cycle;Signal;HPM_P1;HPM_P2
2023/03/16 02:13:13;;;;;;;;;;;;;;;0.92;80.81;100367.34;1088177;39;20102;-82
2023/03/16 02:14:30;;;;;;;;;;;;;;;0.95;81.01;100368.13;1087631;54;19943;-84
2023/03/16 02:15:35;;;;;;;;;;;;;;;0.96;80.95;100372.47;1087862;54;19942;-82
2023/03/16 02:16:36;;;;;;;;;;;;;;;0.98;80.88;100360.94;1087885;54;19943;-83
2023/03/16 02:17:41;;;;;;;;;;;;;;;0.98;80.59;100363.56;1087947;54;19950;-82
2023/03/16 02:18:42;;;;;;;;;;;;;;;0.99;80.96;100357.38;1087852;54;19947;-82
2023/03/16 02:19:51;;;;;;;;;;;;;;;1.03;80.63;100358.94;1088176;39;20482;-83
2023/03/16 02:20:55;;;;;;;;;;;;;;;1.04;80.62;100346.63;1087959;54;19970;-82
2023/03/16 02:22:03;;;;;;;;;;;;;;;1.06;80.55;100348.22;1087957;54;19945;-84
2023/03/16 02:23:06;;;;;;;;;;;;;;;1.05;nan;100348.31;1088041;54;19949;-83
2023/03/16 02:24:10;;;;;;;;;;;;;;;1.04;80.50;100350.09;1088019;54;19942;-84
2023/03/16 02:25:12;;;;;;;;;;;;;;;1.00;80.19;100345.91;1088050;54;19942;-84
2023/03/16 02:26:21;;;;;;;;;;;;;;;0.97;80.46;100346.06;1088171;54;20004;-85
2023/03/16 02:27:26;;;;;;;;;;;;;;;0.87;80.98;100347.44;1088106;54;19927;-83
2023/03/16 02:28:35;;;;;;;;;;;;;;;0.82;81.17;100354.72;1088203;54;19950;-83
2023/03/16 02:29:58;;;;;;;;;;;;;;;0.82;81.36;100349.44;1088067;54;19943;-84
2023/03/16 02:31:02;;;;;;;;;;;;;;;0.76;81.25;100346.19;1088381;39;20235;-83
2023/03/16 02:32:04;;;;;;;;;;;;;;;0.70;81.89;100346.47;1088039;54;19978;-84
2023/03/16 02:33:08;;;;;;;;;;;;;;;0.75;82.25;100343.63;1089490;47;19949;-82
2023/03/16 02:34:10;;;;;;;;;;;;;;;0.79;81.92;100350.47;1087899;54;19949;-83
2023/03/16 02:35:14;;;;;;;;;;;;;;;0.80;81.53;100343.41;1087842;54;20638;-82
2023/03/16 02:36:16;;;;;;;;;;;;;;;0.82;81.52;100333.66;1087829;54;19969;-83
2023/03/16 02:37:20;;;;;;;;;;;;;;;0.82;81.68;100333.66;1087801;54;19958;-82
2023/03/16 02:38:21;;;;;;;;;;;;;;;0.81;81.13;100331.94;1087995;54;19943;-82
2023/03/16 02:39:25;;;;;;;;;;;;;;;0.82;81.28;100333.66;1087757;54;20733;-81
2023/03/16 02:40:27;;;;;;;;;;;;;;;0.83;81.24;100336.22;1087777;47;19950;-83
2023/03/16 02:41:31;;;;;;;;;;;;;;;0.86;81.17;100332.56;1087765;54;19955;-83
2023/03/16 02:42:32;;;;;;;;;;;;;;;0.86;80.94;100332.56;1087801;54;19950;-84
2023/03/16 02:43:37;;;;;;;;;;;;;;;0.86;80.87;100332.56;1087820;54;19950;-84
2023/03/16 02:44:40;;;;;;;;;;;;;;;0.86;80.61;100333.44;1087929;54;19943;-83
2023/03/16 02:45:48;;;;;;;;;;;;;;;0.86;80.96;100320.28;1088005;47;19943;-84
2023/03/16 02:46:51;;;;;;;;;;;;;;;0.84;80.60;100318.66;1088200;47;19943;-82
2023/03/16 02:47:55;;;;;;;;;;;;;;;0.83;80.62;100328.31;1088917;47;19939;-82
2023/03/16 02:48:59;;;;;;;;;;;;;;;0.81;80.69;100318.78;1088194;47;19939;-82
2023/03/16 02:50:05;;;;;;;;;;;;;;;0.77;80.74;100316.28;1087860;54;19942;-81
2023/03/16 02:51:06;;;;;;;;;;;;;;;0.75;80.94;100318.19;1088051;39;20691;-82
2023/03/16 02:52:10;;;;;;;;;;;;;;;0.71;81.44;100328.94;1088954;47;19991;-81
2023/03/16 02:53:11;;;;;;;;;;;;;;;0.74;81.43;100337.53;1087756;54;19943;-84
2023/03/16 02:54:15;;;;;;;;;;;;;;;0.73;81.06;100335.81;1087813;54;19943;-83
2023/03/16 02:55:16;;;;;;;;;;;;;;;0.74;81.17;100336.66;1087866;54;19946;-85
2023/03/16 02:56:21;;;;;;;;;;;;;;;0.72;80.88;100334.09;1089034;47;19949;-83
2023/03/16 02:57:22;;;;;;;;;;;;;;;0.75;81.55;100344.50;1087778;54;19942;-83
2023/03/16 02:58:26;;;;;;;;;;;;;;;0.79;81.29;100345.19;1087789;54;19943;-83
2023/03/16 02:59:27;;;;;;;;;;;;;;;0.81;81.19;100342.47;1087904;54;19943;-82
2023/03/16 03:00:31;;;;;;;;;;;;;;;0.67;81.76;100349.25;1087901;54;19945;-81
2023/03/16 03:01:35;;;;;;;;;;;;;;;0.55;82.03;100347.22;1087886;54;19965;-83
2023/03/16 03:02:39;;;;;;;;;;;;;;;0.45;82.42;100346.81;1087822;54;19982;-85
2023/03/16 03:03:40;;;;;;;;;;;;;;;0.35;82.71;100343.75;1087855;54;19946;-82
2023/03/16 03:04:44;;;;;;;;;;;;;;;0.28;83.11;100348.44;1087775;54;19942;-83
2023/03/16 03:05:46;;;;;;;;;;;;;;;0.26;83.35;100344.19;1088156;54;19970;-83
2023/03/16 03:06:50;;;;;;;;;;;;;;;0.22;83.46;100342.63;1088143;54;19950;-83
2023/03/16 03:07:51;;;;;;;;;;;;;;;0.17;83.60;100353.34;1088162;54;20614;-83
2023/03/16 03:08:55;;;;;;;;;;;;;;;0.09;83.92;100351.09;1088173;54;19942;-85
2023/03/16 03:09:56;;;;;;;;;;;;;;;0.11;84.07;100358.91;1089969;39;20188;-82
2023/03/16 03:10:59;;;;;;;;;;;;;;;0.07;84.01;100350.31;1088225;54;19953;-83
2023/03/16 03:12:01;;;;;;;;;;;;;;;0.05;84.04;100349.50;1088187;54;19942;-82
2023/03/16 03:13:06;;;;;;;;;;;;;;;0.08;84.25;100349.38;1088804;46;19995;-82
2023/03/16 03:14:07;;;;;;;;;;;;;;;0.01;84.58;100347.94;1090839;39;20676;-82
2023/03/16 03:15:11;;;;;;;;;;;;;;;-0.01;84.82;100349.81;1089199;46;19989;-82
2023/03/16 03:16:13;;;;;;;;;;;;;;;-0.12;85.22;100336.28;1088138;54;20575;-83
2023/03/16 03:17:29;;;;;;;;;;;;;;;-0.10;85.61;100343.19;1088221;54;20007;-84
2023/03/16 03:18:30;;;;;;;;;;;;;;;-0.03;85.54;100347.22;1088276;54;19935;-82
2023/03/16 03:19:34;;;;;;;;;;;;;;;-0.08;85.33;100348.34;1088193;54;19950;-82
2023/03/16 03:20:35;;;;;;;;;;;;;;;-0.08;85.86;100345.72;1088618;46;19942;-83
2023/03/16 03:21:39;;;;;;;;;;;;;;;-0.21;86.46;100345.44;1088376;39;20629;-82
2023/03/16 03:22:40;;;;;;;;;;;;;;;-0.07;86.35;100343.03;1088150;54;19939;-81
2023/03/16 03:23:45;;;;;;;;;;;;;;;-0.12;86.06;100341.53;1088884;39;20215;-82
2023/03/16 03:24:46;;;;;;;;;;;;;;;0.03;85.93;100343.47;1088153;54;19991;-83
2023/03/16 03:25:50;;;;;;;;;;;;;;;0.00;85.60;100346.25;1090315;46;19950;-83
2023/03/16 03:26:51;;;;;;;;;;;;;;;0.09;85.33;100343.22;1088132;54;20630;-83
2023/03/16 03:27:56;;;;;;;;;;;;;;;0.11;84.96;100348.38;1088208;54;20586;-82
2023/03/16 03:28:57;;;;;;;;;;;;;;;0.21;84.58;100349.66;1088332;54;19943;-83
2023/03/16 03:30:00;;;;;;;;;;;;;;;0.26;83.95;100341.56;1088340;54;19937;-82
2023/03/16 03:31:02;;;;;;;;;;;;;;;0.30;83.49;100345.75;1088253;54;19946;-84
2023/03/16 03:32:06;;;;;;;;;;;;;;;0.36;83.20;100340.22;1088214;54;19949;-83
2023/03/16 03:33:10;;;;;;;;;;;;;;;0.40;82.67;100333.03;1088151;54;19942;-85
2023/03/16 03:34:13;;;;;;;;;;;;;;;0.41;82.85;100340.84;1088305;54;19931;-83
2023/03/16 03:35:14;;;;;;;;;;;;;;;0.40;82.56;100343.53;1088297;54;19949;-84
2023/03/16 03:36:18;;;;;;;;;;;;;;;0.47;82.32;100345.78;1088271;54;20298;-83
2023/03/16 03:37:19;;;;;;;;;;;;;;;0.44;81.89;100351.22;1088904;46;19943;-84
2023/03/16 03:38:23;;;;;;;;;;;;;;;0.46;81.85;100344.13;1088494;46;19939;-82
2023/03/16 03:39:24;;;;;;;;;;;;;;;0.47;81.58;100342.31;1088296;54;19942;-82
2023/03/16 03:40:28;;;;;;;;;;;;;;;0.47;81.93;100335.28;1088282;54;19995;-83
2023/03/16 03:41:29;;;;;;;;;;;;;;;0.41;82.16;100330.31;1088380;46;19934;-84
2023/03/16 03:42:33;;;;;;;;;;;;;;;0.34;82.33;100326.28;1088268;54;19990;-83
2023/03/16 03:43:34;;;;;;;;;;;;;;;0.21;82.52;100330.38;1088206;54;19950;-83
2023/03/16 03:44:38;;;;;;;;;;;;;;;0.06;83.25;100314.41;1088192;54;19978;-83
2023/03/16 03:45:39;;;;;;;;;;;;;;;0.02;83.85;100307.59;1088292;54;19942;-83
2023/03/16 03:46:42;;;;;;;;;;;;;;;-0.01;84.36;100321.72;1088162;54;19946;-82
2023/03/16 03:47:44;;;;;;;;;;;;;;;-0.02;84.94;100324.44;1088190;54;19943;-82
2023/03/16 03:48:50;;;;;;;;;;;;;;;-0.14;85.49;100322.34;1088156;54;19942;-86
2023/03/16 03:49:51;;;;;;;;;;;;;;;-0.21;86.52;100322.66;1088206;54;19946;-82
2023/03/16 03:50:55;;;;;;;;;;;;;;;-0.22;87.28;100318.31;1091193;46;19943;-82
2023/03/16 03:51:58;;;;;;;;;;;;;;;-0.21;87.57;100316.50;1088778;39;20106;-81
2023/03/16 03:53:01;;;;;;;;;;;;;;;-0.20;87.44;100323.47;1089319;46;19943;-82
2023/03/16 03:54:02;;;;;;;;;;;;;;;-0.23;87.78;100313.97;1088042;54;19943;-81
2023/03/16 03:55:07;;;;;;;;;;;;;;;-0.21;87.94;100313.88;1088047;54;19926;-82
2023/03/16 03:56:08;;;;;;;;;;;;;;;-0.25;87.85;100321.06;1087988;47;20293;-83
2023/03/16 03:57:12;;;;;;;;;;;;;;;-0.25;87.98;100320.22;1088014;54;19939;-82
2023/03/16 03:58:13;;;;;;;;;;;;;;;-0.26;87.90;100321.97;1088712;46;19938;-81
2023/03/16 03:59:17;;;;;;;;;;;;;;;-0.28;88.18;100326.44;1087930;54;20712;-82
2023/03/16 04:00:19;;;;;;;;;;;;;;;-0.34;88.41;100324.09;1087956;54;19962;-81
2023/03/16 04:01:23;;;;;;;;;;;;;;;-0.40;88.79;100322.59;1088242;46;19943;-83
2023/03/16 04:02:24;;;;;;;;;;;;;;;-0.42;89.16;100323.59;1087931;54;19943;-82
2023/03/16 04:03:28;;;;;;;;;;;;;;;-0.42;89.84;100329.69;1087910;54;19950;-82
2023/03/16 04:04:32;;;;;;;;;;;;;;;-0.43;90.26;100321.88;1087835;54;20246;-84
2023/03/16 04:05:35;;;;;;;;;;;;;;;-0.42;90.15;100328.84;1087867;54;19943;-83
2023/03/16 04:06:37;;;;;;;;;;;;;;;-0.40;89.77;100324.38;1087891;54;19942;-83
2023/03/16 04:07:40;;;;;;;;;;;;;;;-0.28;89.37;100320.34;1087878;54;19956;-82
2023/03/16 04:08:42;;;;;;;;;;;;;;;-0.18;89.00;100322.47;1087759;54;19947;-81
2023/03/16 04:09:45;;;;;;;;;;;;;;;-0.17;88.32;100321.56;1089989;46;19943;-81
2023/03/16 04:10:46;;;;;;;;;;;;;;;-0.13;88.46;100322.28;1087886;54;20350;-81
2023/03/16 04:11:50;;;;;;;;;;;;;;;-0.09;88.08;100320.34;1087839;54;19939;-81
2023/03/16 04:12:51;;;;;;;;;;;;;;;-0.07;88.13;100324.66;1087964;54;19935;-83
2023/03/16 04:13:55;;;;;;;;;;;;;;;-0.05;87.96;100316.69;1088024;54;19990;-81
2023/03/16 04:14:56;;;;;;;;;;;;;;;0.02;87.51;100312.84;1087861;54;19956;-84
2023/03/16 04:16:01;;;;;;;;;;;;;;;0.06;87.00;100314.41;1088005;54;19994;-83
2023/03/16 04:17:03;;;;;;;;;;;;;;;0.14;87.01;100306.19;1088472;46;19954;-81
2023/03/16 04:18:07;;;;;;;;;;;;;;;0.12;86.01;100318.53;1088036;46;20300;-82
2023/03/16 04:19:08;;;;;;;;;;;;;;;0.13;86.06;100321.09;1088211;46;19943;-82
2023/03/16 04:20:18;;;;;;;;;;;;;;;0.12;85.97;100314.13;1087917;54;19950;-81
2023/03/16 04:21:19;;;;;;;;;;;;;;;0.08;86.01;100311.72;1089558;46;19942;-81
2023/03/16 04:22:24;;;;;;;;;;;;;;;0.12;86.37;100308.03;1088179;46;19942;-81
2023/03/16 04:23:25;;;;;;;;;;;;;;;0.17;86.05;100305.19;1087952;54;19991;-82
2023/03/16 04:24:29;;;;;;;;;;;;;;;0.21;85.77;100311.97;1087910;54;19939;-82
2023/03/16 04:25:30;;;;;;;;;;;;;;;0.18;85.62;100309.53;1087925;54;19966;-82
2023/03/16 04:26:34;;;;;;;;;;;;;;;0.12;85.06;100308.88;1088022;54;20002;-83
2023/03/16 04:27:35;;;;;;;;;;;;;;;0.10;85.76;100300.19;1088016;54;20002;-82
2023/03/16 04:28:42;;;;;;;;;;;;;;;0.10;86.09;100305.44;1088690;46;19990;-81
2023/03/16 04:29:43;;;;;;;;;;;;;;;0.08;86.00;100298.56;1088145;54;19934;-83
2023/03/16 04:30:46;;;;;;;;;;;;;;;-0.02;86.37;100306.88;1090563;46;19949;-82
2023/03/16 04:31:48;;;;;;;;;;;;;;;0.01;87.06;100305.03;1088467;46;19942;-82
2023/03/16 04:32:51;;;;;;;;;;;;;;;0.05;87.17;100303.97;1087977;54;19938;-81
2023/03/16 04:33:55;;;;;;;;;;;;;;;0.09;86.77;100303.78;1088043;54;19962;-80
2023/03/16 04:34:56;;;;;;;;;;;;;;;0.11;86.52;100301.91;1087936;54;20273;-81
2023/03/16 04:36:04;;;;;;;;;;;;;;;0.11;86.30;100301.06;1087933;54;19943;-81
2023/03/16 04:37:05;;;;;;;;;;;;;;;0.09;86.17;100302.91;1087922;54;19995;-82
2023/03/16 04:38:09;;;;;;;;;;;;;;;0.11;86.33;100299.25;1089128;39;20272;-83
2023/03/16 04:39:10;;;;;;;;;;;;;;;0.13;85.78;100305.31;1087963;54;19923;-83
2023/03/16 04:40:18;;;;;;;;;;;;;;;0.07;85.73;100302.13;1087701;54;19950;-82
2023/03/16 04:41:19;;;;;;;;;;;;;;;0.10;86.12;100308.06;1087759;54;19943;-83
2023/03/16 04:42:23;;;;;;;;;;;;;;;0.11;85.77;100301.06;1087824;54;19989;-82
2023/03/16 04:43:24;;;;;;;;;;;;;;;0.04;85.78;100300.47;1091341;39;20550;-82
2023/03/16 04:44:28;;;;;;;;;;;;;;;0.01;86.20;100307.66;1087763;54;19942;-81
2023/03/16 04:45:29;;;;;;;;;;;;;;;0.01;86.06;100305.03;1090269;39;20583;-83
2023/03/16 04:46:34;;;;;;;;;;;;;;;0.01;86.12;100303.25;1087826;54;19949;-82
2023/03/16 04:47:36;;;;;;;;;;;;;;;0.04;86.19;100300.47;1091570;39;20213;-81
2023/03/16 04:48:40;;;;;;;;;;;;;;;0.10;86.24;100301.97;1087783;54;19950;-82
2023/03/16 04:49:41;;;;;;;;;;;;;;;0.08;86.45;100307.31;1088006;54;19950;-82
2023/03/16 04:50:45;;;;;;;;;;;;;;;0.10;86.83;100308.06;1087950;54;19943;-83
2023/03/16 04:51:49;;;;;;;;;;;;;;;0.12;86.89;100306.22;1088097;54;19942;-82
2023/03/16 04:52:53;;;;;;;;;;;;;;;0.13;86.14;100309.72;1092522;39;20903;-81
2023/03/16 04:53:54;;;;;;;;;;;;;;;0.15;86.03;100306.09;1088132;54;19946;-83
2023/03/16 04:54:58;;;;;;;;;;;;;;;0.15;85.60;100308.72;1088072;54;19930;-82
2023/03/16 04:55:59;;;;;;;;;;;;;;;0.17;85.44;100311.28;1087929;54;19950;-83
2023/03/16 04:57:03;;;;;;;;;;;;;;;0.17;85.65;100313.06;1087681;54;19943;-83
2023/03/16 04:58:04;;;;;;;;;;;;;;;0.10;85.63;100307.22;1091212;39;20612;-83
2023/03/16 04:59:08;;;;;;;;;;;;;;;0.04;86.13;100310.16;1087728;54;19942;-83
2023/03/16 05:00:14;;;;;;;;;;;;;;;0.02;86.66;100302.31;1087705;54;20010;-83
2023/03/16 05:01:18;;;;;;;;;;;;;;;0.02;86.80;100309.38;1089264;39;20574;-82
2023/03/16 05:02:19;;;;;;;;;;;;;;;0.04;86.70;100302.28;1087723;54;19942;-83
2023/03/16 05:03:24;;;;;;;;;;;;;;;0.07;86.56;100310.88;1087819;54;19950;-82
2023/03/16 05:04:25;;;;;;;;;;;;;;;0.10;86.68;100301.97;1087758;54;19957;-83
2023/03/16 05:05:28;;;;;;;;;;;;;;;0.08;85.96;100306.44;1088802;39;20230;-83
2023/03/16 05:06:30;;;;;;;;;;;;;;;0.09;86.48;100314.28;1087873;54;19965;-84
2023/03/16 05:07:36;;;;;;;;;;;;;;;0.06;86.04;100303.91;1087715;54;19943;-82
2023/03/16 05:08:37;;;;;;;;;;;;;;;0.03;85.92;100308.44;1087852;54;19950;-82
2023/03/16 05:09:41;;;;;;;;;;;;;;;0.04;86.31;100311.00;1087880;54;19942;-82
2023/03/16 05:10:43;;;;;;;;;;;;;;;0.07;86.48;100302.97;1088039;46;19962;-83
2023/03/16 05:11:47;;;;;;;;;;;;;;;0.08;86.24;100309.06;1087809;54;19949;-82
2023/03/16 05:12:48;;;;;;;;;;;;;;;0.12;86.02;100297.50;1087686;54;19949;-82
2023/03/16 05:13:51;;;;;;;;;;;;;;;0.14;85.96;100307.03;1089268;39;20657;-81
2023/03/16 05:14:53;;;;;;;;;;;;;;;0.10;85.82;100305.44;1087706;54;19949;-82
2023/03/16 05:15:56;;;;;;;;;;;;;;;0.08;85.63;100296.81;1088099;46;19946;-81
2023/03/16 05:16:57;;;;;;;;;;;;;;;0.08;85.76;100303.81;1089007;46;19950;-83
2023/03/16 05:18:01;;;;;;;;;;;;;;;0.04;85.69;100294.38;1087644;54;19950;-83
2023/03/16 05:19:03;;;;;;;;;;;;;;;-0.07;86.22;100295.72;1087809;54;19943;-83
2023/03/16 05:20:11;;;;;;;;;;;;;;;-0.12;86.93;100292.44;1087824;54;21035;-82
2023/03/16 05:21:12;;;;;;;;;;;;;;;-0.06;87.51;100296.56;1087847;54;19942;-83
2023/03/16 05:22:16;;;;;;;;;;;;;;;-0.09;87.37;100294.06;1087747;54;19950;-82
2023/03/16 05:23:19;;;;;;;;;;;;;;;-0.09;87.39;100289.69;1087940;54;19942;-81
2023/03/16 05:24:23;;;;;;;;;;;;;;;-0.01;87.79;100289.34;1087888;54;19942;-84
2023/03/16 05:25:24;;;;;;;;;;;;;;;-0.01;86.99;100287.56;1087774;54;19942;-83
2023/03/16 05:26:28;;;;;;;;;;;;;;;0.03;86.93;100290.06;1087810;54;19942;-83
2023/03/16 05:27:30;;;;;;;;;;;;;;;0.04;86.87;100292.59;1087564;54;19942;-82
2023/03/16 05:28:33;;;;;;;;;;;;;;;-0.04;86.35;100290.31;1087633;54;19943;-82
2023/03/16 05:29:34;;;;;;;;;;;;;;;-0.08;87.02;100291.41;1087788;54;19934;-82
2023/03/16 05:30:38;;;;;;;;;;;;;;;-0.11;87.14;100288.91;1087793;54;19942;-81
2023/03/16 05:31:39;;;;;;;;;;;;;;;-0.07;87.49;100293.09;1087798;54;19942;-81
2023/03/16 05:32:43;;;;;;;;;;;;;;;-0.09;87.25;100288.81;1087856;54;19954;-82
2023/03/16 05:33:44;;;;;;;;;;;;;;;-0.08;87.75;100290.53;1089833;39;20455;-82
2023/03/16 05:34:48;;;;;;;;;;;;;;;-0.12;88.20;100289.81;1087905;54;20654;-82
2023/03/16 05:35:49;;;;;;;;;;;;;;;-0.22;87.93;100289.41;1087948;54;20703;-82
2023/03/16 05:36:53;;;;;;;;;;;;;;;-0.23;88.65;100294.72;1087899;54;19982;-82
2023/03/16 05:37:54;;;;;;;;;;;;;;;-0.23;89.29;100298.19;1087881;54;20544;-83
2023/03/16 05:39:01;;;;;;;;;;;;;;;-0.17;89.23;100289.19;1087934;54;19949;-83
2023/03/16 05:40:10;;;;;;;;;;;;;;;-0.10;89.04;100281.88;1087741;54;20906;-82
2023/03/16 05:41:17;;;;;;;;;;;;;;;-0.05;88.72;100291.22;1090443;39;20857;-82
2023/03/16 05:42:18;;;;;;;;;;;;;;;-0.02;88.06;100288.47;1087943;54;19945;-81
2023/03/16 05:43:22;;;;;;;;;;;;;;;0.02;87.76;100291.81;1087901;54;20027;-84
2023/03/16 05:44:23;;;;;;;;;;;;;;;0.04;87.64;100289.97;1087850;54;19947;-84
2023/03/16 05:45:28;;;;;;;;;;;;;;;0.06;87.33;100289.88;1087892;54;19931;-83
2023/03/16 05:46:29;;;;;;;;;;;;;;;0.09;87.43;100293.25;1087901;54;19950;-82
2023/03/16 05:47:35;;;;;;;;;;;;;;;0.08;87.17;100285.41;1090159;46;19996;-82
2023/03/16 05:48:39;;;;;;;;;;;;;;;0.13;87.30;100283.44;1087971;54;19970;-81
2023/03/16 05:49:40;;;;;;;;;;;;;;;0.13;86.96;100281.66;1087960;54;19949;-83
2023/03/16 05:50:44;;;;;;;;;;;;;;;0.14;86.86;100288.63;1087961;54;19999;-81
2023/03/16 05:51:45;;;;;;;;;;;;;;;0.17;86.85;100284.97;1087913;54;19966;-82
2023/03/16 05:52:49;;;;;;;;;;;;;;;0.21;86.48;100289.19;1087814;54;19950;-83
2023/03/16 05:53:51;;;;;;;;;;;;;;;0.22;86.26;100283.00;1087933;54;19966;-82
2023/03/16 05:54:57;;;;;;;;;;;;;;;0.21;85.81;100286.56;1091367;39;20923;-82
2023/03/16 05:56:00;;;;;;;;;;;;;;;0.20;86.09;100276.97;1088117;54;19934;-83
2023/03/16 05:57:05;;;;;;;;;;;;;;;0.19;85.95;100279.66;1087916;54;19946;-82
2023/03/16 05:58:06;;;;;;;;;;;;;;;0.20;86.05;100276.09;1088025;54;19946;-82
2023/03/16 05:59:10;;;;;;;;;;;;;;;0.17;85.75;100273.63;1087910;54;19994;-82
2023/03/16 06:00:14;;;;;;;;;;;;;;;0.10;85.69;100271.25;1088190;47;19934;-81
2023/03/16 06:01:19;;;;;;;;;;;;;;;0.15;86.38;100271.91;1088024;54;19931;-81
2023/03/16 06:02:20;;;;;;;;;;;;;;;0.15;86.41;100276.31;1087941;54;19941;-85
2023/03/16 06:03:26;;;;;;;;;;;;;;;0.19;86.29;100277.03;1089038;46;19950;-82
2023/03/16 06:04:27;;;;;;;;;;;;;;;0.21;85.72;100275.16;1088142;54;19939;-83
2023/03/16 06:05:32;;;;;;;;;;;;;;;0.23;85.91;100275.94;1088041;54;20046;-79
2023/03/16 06:06:33;;;;;;;;;;;;;;;0.26;86.01;100271.41;1088231;47;19965;-84
2023/03/16 06:07:37;;;;;;;;;;;;;;;0.26;85.61;100279.28;1087749;54;19942;-81
2023/03/16 06:08:38;;;;;;;;;;;;;;;0.29;85.42;100273.03;1087790;54;19958;-83
2023/03/16 06:09:42;;;;;;;;;;;;;;;0.30;85.53;100274.72;1087761;54;19949;-82
2023/03/16 06:10:46;;;;;;;;;;;;;;;0.33;85.35;100282.47;1088225;54;20558;-85
2023/03/16 06:11:51;;;;;;;;;;;;;;;0.36;85.55;100279.72;1088208;54;19943;-81
2023/03/16 06:12:52;;;;;;;;;;;;;;;0.37;85.34;100276.16;1088279;54;19927;-83
2023/03/16 06:13:56;;;;;;;;;;;;;;;0.39;85.31;100276.91;1095644;39;20502;-82
2023/03/16 06:14:57;;;;;;;;;;;;;;;0.40;85.27;100278.63;1092279;39;20672;-85
2023/03/16 06:16:01;;;;;;;;;;;;;;;0.42;85.00;100271.50;1088243;54;19942;-84
2023/03/16 06:17:02;;;;;;;;;;;;;;;0.46;85.19;100278.34;1088287;54;20777;-84
2023/03/16 06:18:06;;;;;;;;;;;;;;;0.46;84.65;100275.72;1088321;54;19942;-83
2023/03/16 06:19:07;;;;;;;;;;;;;;;0.48;84.88;100270.38;1088229;54;19946;-84
2023/03/16 06:20:13;;;;;;;;;;;;;;;0.51;84.54;100272.88;1088335;54;20983;-83
2023/03/16 06:21:14;;;;;;;;;;;;;;;0.46;84.49;100274.84;1088398;54;19943;-84
2023/03/16 06:23:27;;;;;;;;;;;;;;;0.46;85.16;100270.47;1082272;54;19942;-82
2023/03/16 06:24:30;;;;;;;;;;;;;;;0.43;84.99;100270.59;1085128;54;19927;31
2023/03/16 06:26:40;;;;;;;;;;;;;;;0.45;84.23;100263.50;1088482;54;19930;-83
2023/03/16 06:27:42;;;;;;;;;;;;;;;0.44;84.37;100274.94;1091289;47;19958;-82
2023/03/16 06:28:52;;;;;;;;;;;;;;;0.46;84.24;100273.09;1088599;54;19931;-82
2023/03/16 06:29:53;;;;;;;;;;;;;;;0.51;84.68;100264.97;1098554;47;19938;-82
2023/03/16 06:32:06;;;;;;;;;;;;;;;0.56;84.64;100264.75;1088953;54;19939;-84
2023/03/16 06:33:07;;;;;;;;;;;;;;;0.53;84.35;100273.63;1097741;47;19966;-82
2023/03/16 06:34:13;;;;;;;;;;;;;;;0.49;84.79;100269.44;1088559;47;19931;-83
2023/03/16 06:35:14;;;;;;;;;;;;;;;0.56;84.90;100278.75;1091796;47;19961;-84
2023/03/16 06:36:24;;;;;;;;;;;;;;;0.56;84.72;100281.38;1094326;47;19933;-83
2023/03/16 06:46:55;;;;;;;;;;;;;;;0.70;83.04;100270.16;1089002;54;19990;-83
2023/03/16 06:47:59;;;;;;;;;;;;;;;0.77;83.47;100273.34;1088885;54;19923;-84
2023/03/16 06:49:03;;;;;;;;;;;;;;;0.80;83.15;100273.22;1095392;46;19950;-85
2023/03/16 06:53:34;;;;;;;;;;;;;;;0.80;82.78;100270.56;1089030;54;19947;-84
2023/03/16 06:56:55;;;;;;;;;;;;;;;0.86;82.81;100267.63;1076193;54;20001;31
2023/03/16 06:59:16;;;;;;;;;;;;;;;0.91;82.55;100272.66;1088066;54;19927;31
2023/03/16 07:06:31;;;;;;;;;;;;;;;0.95;82.45;100286.50;1074783;54;20643;31
2023/03/16 07:07:39;;;;;;;;;;;;;;;1.05;82.14;100283.31;1077270;54;19980;31
2023/03/16 07:08:41;;;;;;;;;;;;;;;1.11;81.68;100286.59;1088885;46;19942;-84
2023/03/16 07:30:06;;;;;;;;;;;;;;;2.15;78.22;100292.53;1074852;54;20858;31
2023/03/16 07:58:57;;;;;;;;;;;;;;;3.18;74.74;100285.78;1074757;54;19969;31
2023/03/16 08:32:06;;;;;;;;;;;;;;;5.68;66.70;100249.38;1088280;54;19947;-83
2023/03/16 10:43:28;;;;;;;;;;;;;;;11.87;43.62;100102.53;1087376;54;19998;-80
2023/03/16 10:44:41;;;;;;;;;;;;;;;11.71;43.23;100104.00;1088605;54;19943;-81
2023/03/16 10:45:47;;;;;;;;;;;;;;;11.68;43.52;100098.97;1088427;54;19952;-81
2023/03/16 10:46:49;;;;;;;;;;;;;;;11.31;44.37;100102.56;1090790;46;20587;-80
2023/03/16 10:47:54;;;;;;;;;;;;;;;11.63;44.25;100098.56;1087991;54;19950;-81
2023/03/16 10:49:01;;;;;;;;;;;;;;;11.78;44.39;100100.75;1088487;54;19942;-81
2023/03/16 10:50:38;;;;;;;;;;;;;;;;;;;;;
2023/03/16 10:51:47;;;;;;;;;;;;;;;11.79;44.50;100105.13;1088380;54;19969;-81
2023/03/16 10:52:59;;;;;;;;;;;;;;;11.73;43.55;100111.06;1089111;54;19927;-84
2023/03/16 10:54:05;;;;;;;;;;;;;;;11.68;43.38;100103.47;1088759;54;19936;-80
2023/03/16 10:55:42;;;;;;;;;;;;;;;11.86;43.90;100093.63;1088428;54;19999;-81
2023/03/16 10:56:49;;;;;;;;;;;;;;;11.71;43.47;100092.47;1088084;54;20041;-79
2023/03/16 11:01:51;;;;;;;;;;;;;;;12.05;43.86;100082.97;1086591;54;19927;-82
2023/03/16 11:02:58;;;;;;;;;;;;;;;11.74;43.17;100086.84;1087906;39;20476;-79
2023/03/16 11:04:01;;;;;;;;;;;;;;;11.55;43.35;100087.78;1087400;54;19949;-81
2023/03/16 11:05:38;;;;;;;;;;;;;;;11.82;43.65;100083.38;1087902;54;19942;-80
2023/03/16 11:06:48;;;;;;;;;;;;;;;12.07;43.01;100081.81;1088192;54;19943;-79
2023/03/16 11:10:56;;;;;;;;;;;;;;;12.65;41.51;100079.56;1087908;54;20618;-80
2023/03/16 11:11:58;;;;;;;;;;;;;;;12.56;41.02;100081.38;1088056;54;20012;-81
2023/03/16 11:13:08;;;;;;;;;;;;;;;12.25;41.40;100075.59;1091311;39;20594;-80
2023/03/16 11:14:11;;;;;;;;;;;;;;;12.00;42.00;100078.91;1087896;54;19965;-80
2023/03/16 11:15:16;;;;;;;;;;;;;;;12.05;41.75;100072.25;1088367;54;19943;-80
2023/03/16 11:16:25;;;;;;;;;;;;;;;12.13;42.15;100075.00;1088381;54;19942;-81
2023/03/16 11:17:34;;;;;;;;;;;;;;;12.02;42.40;100073.41;1088303;54;19965;-81
2023/03/16 11:18:42;;;;;;;;;;;;;;;11.78;42.41;100076.66;1088265;54;19950;-80
2023/03/16 11:19:50;;;;;;;;;;;;;;;11.92;42.84;100068.06;1088555;46;19965;-82
2023/03/16 11:20:54;;;;;;;;;;;;;;;11.86;42.31;100066.84;1088480;54;19958;-81
2023/03/16 11:22:00;;;;;;;;;;;;;;;11.86;43.20;100074.06;1088611;54;19942;-80
2023/03/16 11:23:03;;;;;;;;;;;;;;;11.86;43.04;100068.69;1089423;46;19950;-79
2023/03/16 11:24:07;;;;;;;;;;;;;;;11.87;42.85;100065.03;1088364;54;20037;-78
2023/03/16 11:25:14;;;;;;;;;;;;;;;11.70;43.33;100062.19;1088461;54;19938;-79
2023/03/16 11:26:23;;;;;;;;;;;;;;;11.62;43.49;100066.59;1087557;54;19942;-81
2023/03/16 11:27:26;;;;;;;;;;;;;;;11.60;43.58;100057.88;1087908;54;19950;-81
2023/03/16 11:28:36;;;;;;;;;;;;;;;11.55;43.24;100059.19;1087888;54;19973;-80
2023/03/16 11:29:46;;;;;;;;;;;;;;;11.74;43.39;100056.50;1088104;46;19943;-80
2023/03/16 11:30:54;;;;;;;;;;;;;;;11.77;43.09;100064.25;1087734;54;19950;-81
2023/03/16 11:31:56;;;;;;;;;;;;;;;11.73;42.92;100062.84;1088599;39;20601;-79
2023/03/16 11:33:00;;;;;;;;;;;;;;;11.78;42.99;100052.53;1087671;54;19949;-80
2023/03/16 11:34:10;;;;;;;;;;;;;;;11.71;42.86;100061.16;1087734;54;19942;-79
2023/03/16 11:35:15;;;;;;;;;;;;;;;11.42;42.43;100056.03;1087632;54;19965;-79
2023/03/16 11:36:33;;;;;;;;;;;;;;;11.55;43.01;100061.88;1088593;46;19954;-81
2023/03/16 11:37:41;;;;;;;;;;;;;;;11.62;42.93;100056.72;1087870;54;21324;-80
2023/03/16 11:38:51;;;;;;;;;;;;;;;11.64;42.80;100051.25;1089463;39;20471;-80
2023/03/16 11:40:00;;;;;;;;;;;;;;;11.63;43.22;100042.34;1087772;54;19942;-80
2023/03/16 11:41:03;;;;;;;;;;;;;;;11.61;42.34;100049.72;1089035;39;20477;-80
2023/03/16 11:42:25;;;;;;;;;;;;;;;11.62;42.83;100039.84;1087739;54;19946;-79
2023/03/16 11:43:41;;;;;;;;;;;;;;;11.61;42.51;100038.16;1087669;54;19947;-79
2023/03/16 11:44:46;;;;;;;;;;;;;;;11.49;43.20;100050.91;1087777;54;19973;-80
2023/03/16 11:45:51;;;;;;;;;;;;;;;11.44;43.24;100039.78;1087887;54;19943;-79
2023/03/16 11:47:18;;;;;;;;;;;;;;;11.42;42.93;100028.41;1087914;54;19950;-82
2023/03/16 11:48:35;;;;;;;;;;;;;;;11.43;42.78;100025.59;1087610;54;20003;-78
2023/03/16 11:49:55;;;;;;;;;;;;;;;11.34;42.43;100027.31;1087881;54;19939;-80
2023/03/16 11:51:01;;;;;;;;;;;;;;;11.34;42.45;100035.34;1087766;54;20660;-81